sensor_id;sensor_type;location;lat;lon;timestamp;P1;P2;P0
42002;PMS7003;27693;50.506;30.832;2022-08-24T00:00:45;15.40;14.10;11.20
42002;PMS7003;27693;50.506;30.832;2022-08-24T00:01:48;13.80;13.80;10.30
42002;PMS7003;27693;50.506;30.832;2022-08-24T00:02:52;16.30;13.20;10.90
42002;PMS7003;27693;50.506;30.832;2022-08-24T00:03:55;16.90;15.60;11.70
42002;PMS7003;27693;50.506;30.832;2022-08-24T00:04:58;15.50;11.70;9.80
42002;PMS7003;27693;50.506;30.832;2022-08-24T00:06:01;15.09;13.82;10.73
42002;PMS7003;27693;50.506;30.832;2022-08-24T00:07:05;15.00;13.40;11.40
42002;PMS7003;27693;50.506;30.832;2022-08-24T00:08:09;16.10;15.00;11.90
42002;PMS7003;27693;50.506;30.832;2022-08-24T00:09:12;18.80;15.60;12.10
42002;PMS7003;27693;50.506;30.832;2022-08-24T00:10:15;11.90;10.90;9.00
42002;PMS7003;27693;50.506;30.832;2022-08-24T00:11:19;13.90;11.80;10.20
42002;PMS7003;27693;50.506;30.832;2022-08-24T00:12:22;19.50;14.10;11.00
42002;PMS7003;27693;50.506;30.832;2022-08-24T00:13:25;14.10;13.30;10.30
42002;PMS7003;27693;50.506;30.832;2022-08-24T00:14:30;15.00;14.00;10.40
42002;PMS7003;27693;50.506;30.832;2022-08-24T00:15:34;16.00;13.90;10.60
42002;PMS7003;27693;50.506;30.832;2022-08-24T00:16:36;14.60;12.90;11.00
42002;PMS7003;27693;50.506;30.832;2022-08-24T00:17:39;14.70;13.00;10.30
42002;PMS7003;27693;50.506;30.832;2022-08-24T00:18:41;15.20;14.00;11.30
42002;PMS7003;27693;50.506;30.832;2022-08-24T00:19:44;14.50;13.40;10.80
42002;PMS7003;27693;50.506;30.832;2022-08-24T00:20:46;15.60;14.70;11.30
42002;PMS7003;27693;50.506;30.832;2022-08-24T00:21:48;13.90;13.60;10.20
42002;PMS7003;27693;50.506;30.832;2022-08-24T00:22:51;17.80;13.00;9.80
42002;PMS7003;27693;50.506;30.832;2022-08-24T00:23:53;18.45;13.18;10.55
42002;PMS7003;27693;50.506;30.832;2022-08-24T00:24:56;12.75;12.25;9.88
42002;PMS7003;27693;50.506;30.832;2022-08-24T00:25:58;14.40;13.10;10.60
42002;PMS7003;27693;50.506;30.832;2022-08-24T00:27:00;14.50;12.70;10.50
42002;PMS7003;27693;50.506;30.832;2022-08-24T00:28:04;15.82;13.18;9.82
42002;PMS7003;27693;50.506;30.832;2022-08-24T00:29:06;11.50;9.80;8.60
42002;PMS7003;27693;50.506;30.832;2022-08-24T00:30:11;17.20;12.30;9.90
42002;PMS7003;27693;50.506;30.832;2022-08-24T00:31:16;16.90;12.80;10.60
42002;PMS7003;27693;50.506;30.832;2022-08-24T00:32:18;14.50;12.90;10.00
42002;PMS7003;27693;50.506;30.832;2022-08-24T00:33:21;12.60;10.00;7.70
42002;PMS7003;27693;50.506;30.832;2022-08-24T00:34:23;11.90;9.80;8.40
42002;PMS7003;27693;50.506;30.832;2022-08-24T00:35:27;16.20;14.00;10.30
42002;PMS7003;27693;50.506;30.832;2022-08-24T00:36:29;13.40;12.80;9.50
42002;PMS7003;27693;50.506;30.832;2022-08-24T00:37:31;16.60;13.20;10.70
42002;PMS7003;27693;50.506;30.832;2022-08-24T00:38:36;12.10;9.90;8.60
42002;PMS7003;27693;50.506;30.832;2022-08-24T00:39:40;12.20;11.80;9.60
42002;PMS7003;27693;50.506;30.832;2022-08-24T00:40:45;17.90;15.40;10.90
42002;PMS7003;27693;50.506;30.832;2022-08-24T00:41:48;14.90;13.50;10.70
42002;PMS7003;27693;50.506;30.832;2022-08-24T00:42:53;13.70;12.60;9.70
42002;PMS7003;27693;50.506;30.832;2022-08-24T00:43:58;16.10;14.30;11.30
42002;PMS7003;27693;50.506;30.832;2022-08-24T00:45:02;13.20;11.80;8.20
42002;PMS7003;27693;50.506;30.832;2022-08-24T00:48:29;17.40;13.60;9.90
42002;PMS7003;27693;50.506;30.832;2022-08-24T00:49:36;13.60;11.80;9.50
42002;PMS7003;27693;50.506;30.832;2022-08-24T00:50:44;16.40;12.90;10.80
42002;PMS7003;27693;50.506;30.832;2022-08-24T00:51:54;12.00;7.60;6.60
42002;PMS7003;27693;50.506;30.832;2022-08-24T00:53:01;12.70;12.50;10.00
42002;PMS7003;27693;50.506;30.832;2022-08-24T00:54:07;16.40;12.90;10.40
42002;PMS7003;27693;50.506;30.832;2022-08-24T00:55:15;15.20;11.30;8.00
42002;PMS7003;27693;50.506;30.832;2022-08-24T00:56:18;14.80;12.50;10.00
42002;PMS7003;27693;50.506;30.832;2022-08-24T00:57:33;15.40;13.60;10.80
42002;PMS7003;27693;50.506;30.832;2022-08-24T00:58:38;16.40;12.90;10.00
42002;PMS7003;27693;50.506;30.832;2022-08-24T00:59:45;14.50;13.50;9.40
42002;PMS7003;27693;50.506;30.832;2022-08-24T01:00:52;14.30;12.90;10.90
42002;PMS7003;27693;50.506;30.832;2022-08-24T01:01:56;16.50;14.00;10.60
42002;PMS7003;27693;50.506;30.832;2022-08-24T01:03:02;16.40;14.10;11.10
42002;PMS7003;27693;50.506;30.832;2022-08-24T01:04:06;14.10;9.70;7.20
42002;PMS7003;27693;50.506;30.832;2022-08-24T01:05:12;17.30;14.30;12.50
42002;PMS7003;27693;50.506;30.832;2022-08-24T01:06:15;19.10;14.20;10.10
42002;PMS7003;27693;50.506;30.832;2022-08-24T01:07:17;15.10;13.40;11.20
42002;PMS7003;27693;50.506;30.832;2022-08-24T01:08:21;15.70;13.60;11.60
42002;PMS7003;27693;50.506;30.832;2022-08-24T01:09:24;16.00;12.82;10.27
42002;PMS7003;27693;50.506;30.832;2022-08-24T01:10:28;15.91;13.45;10.27
42002;PMS7003;27693;50.506;30.832;2022-08-24T01:11:33;15.10;14.40;10.60
42002;PMS7003;27693;50.506;30.832;2022-08-24T01:12:37;14.20;12.40;9.00
42002;PMS7003;27693;50.506;30.832;2022-08-24T01:13:42;12.30;11.40;9.00
42002;PMS7003;27693;50.506;30.832;2022-08-24T01:14:47;12.50;10.90;8.80
42002;PMS7003;27693;50.506;30.832;2022-08-24T01:15:51;17.36;13.64;11.36
42002;PMS7003;27693;50.506;30.832;2022-08-24T01:16:55;16.70;14.20;11.70
42002;PMS7003;27693;50.506;30.832;2022-08-24T01:17:58;14.30;12.60;10.00
42002;PMS7003;27693;50.506;30.832;2022-08-24T01:19:02;15.50;12.80;9.50
42002;PMS7003;27693;50.506;30.832;2022-08-24T01:20:08;15.00;12.70;10.30
42002;PMS7003;27693;50.506;30.832;2022-08-24T01:21:32;11.60;10.40;7.90
42002;PMS7003;27693;50.506;30.832;2022-08-24T01:23:58;12.90;12.10;9.60
42002;PMS7003;27693;50.506;30.832;2022-08-24T01:25:04;14.20;13.00;10.50
42002;PMS7003;27693;50.506;30.832;2022-08-24T01:26:10;14.70;13.70;10.80
42002;PMS7003;27693;50.506;30.832;2022-08-24T01:27:15;12.00;10.20;8.90
42002;PMS7003;27693;50.506;30.832;2022-08-24T01:28:22;12.70;11.50;8.80
42002;PMS7003;27693;50.506;30.832;2022-08-24T01:29:27;16.00;12.70;9.90
42002;PMS7003;27693;50.506;30.832;2022-08-24T01:30:32;14.20;12.50;9.60
42002;PMS7003;27693;50.506;30.832;2022-08-24T01:31:37;13.60;11.60;9.70
42002;PMS7003;27693;50.506;30.832;2022-08-24T01:32:41;13.80;11.50;9.30
42002;PMS7003;27693;50.506;30.832;2022-08-24T01:33:59;14.00;11.60;10.00
42002;PMS7003;27693;50.506;30.832;2022-08-24T01:35:02;13.90;11.50;10.40
42002;PMS7003;27693;50.506;30.832;2022-08-24T01:36:12;13.90;13.20;10.30
42002;PMS7003;27693;50.506;30.832;2022-08-24T01:37:17;16.80;11.50;8.80
42002;PMS7003;27693;50.506;30.832;2022-08-24T01:38:20;13.30;12.00;9.70
42002;PMS7003;27693;50.506;30.832;2022-08-24T01:40:35;14.30;11.70;8.60
42002;PMS7003;27693;50.506;30.832;2022-08-24T01:41:36;14.00;11.60;9.90
42002;PMS7003;27693;50.506;30.832;2022-08-24T01:42:38;13.30;12.10;9.80
42002;PMS7003;27693;50.506;30.832;2022-08-24T01:43:40;14.80;11.90;10.00
42002;PMS7003;27693;50.506;30.832;2022-08-24T01:44:43;12.80;12.40;10.50
42002;PMS7003;27693;50.506;30.832;2022-08-24T01:45:47;12.00;11.90;9.40
42002;PMS7003;27693;50.506;30.832;2022-08-24T01:46:51;14.10;13.20;10.20
42002;PMS7003;27693;50.506;30.832;2022-08-24T01:47:55;11.70;10.60;7.40
42002;PMS7003;27693;50.506;30.832;2022-08-24T01:48:58;14.60;12.30;8.90
42002;PMS7003;27693;50.506;30.832;2022-08-24T01:50:01;13.60;12.20;10.20
42002;PMS7003;27693;50.506;30.832;2022-08-24T01:51:03;10.70;10.10;9.00
42002;PMS7003;27693;50.506;30.832;2022-08-24T01:52:06;11.10;8.00;6.30
42002;PMS7003;27693;50.506;30.832;2022-08-24T01:53:09;12.70;10.20;8.50
42002;PMS7003;27693;50.506;30.832;2022-08-24T01:54:12;13.10;11.60;9.00
42002;PMS7003;27693;50.506;30.832;2022-08-24T01:55:15;12.80;12.00;9.40
42002;PMS7003;27693;50.506;30.832;2022-08-24T01:56:23;12.00;12.00;9.80
42002;PMS7003;27693;50.506;30.832;2022-08-24T01:57:26;12.70;11.40;9.60
42002;PMS7003;27693;50.506;30.832;2022-08-24T01:58:30;14.60;10.70;9.20
42002;PMS7003;27693;50.506;30.832;2022-08-24T01:59:33;12.20;10.60;8.80
42002;PMS7003;27693;50.506;30.832;2022-08-24T02:00:36;12.00;10.70;9.00
42002;PMS7003;27693;50.506;30.832;2022-08-24T02:01:40;12.20;11.10;8.30
42002;PMS7003;27693;50.506;30.832;2022-08-24T02:02:45;11.90;10.20;8.90
42002;PMS7003;27693;50.506;30.832;2022-08-24T02:03:48;11.90;10.80;8.70
42002;PMS7003;27693;50.506;30.832;2022-08-24T02:04:53;12.30;10.60;8.40
42002;PMS7003;27693;50.506;30.832;2022-08-24T02:05:56;12.70;11.30;9.10
42002;PMS7003;27693;50.506;30.832;2022-08-24T02:06:58;11.20;9.70;8.00
42002;PMS7003;27693;50.506;30.832;2022-08-24T02:08:02;13.90;10.40;8.00
42002;PMS7003;27693;50.506;30.832;2022-08-24T02:09:05;12.50;11.50;9.20
42002;PMS7003;27693;50.506;30.832;2022-08-24T02:10:12;12.50;10.70;9.10
42002;PMS7003;27693;50.506;30.832;2022-08-24T02:11:15;10.80;9.70;7.60
42002;PMS7003;27693;50.506;30.832;2022-08-24T02:12:17;15.10;10.40;8.40
42002;PMS7003;27693;50.506;30.832;2022-08-24T02:13:21;13.90;11.10;8.50
42002;PMS7003;27693;50.506;30.832;2022-08-24T02:14:23;12.20;11.30;8.70
42002;PMS7003;27693;50.506;30.832;2022-08-24T02:15:32;13.10;12.10;9.70
42002;PMS7003;27693;50.506;30.832;2022-08-24T02:16:37;12.50;12.00;9.70
42002;PMS7003;27693;50.506;30.832;2022-08-24T02:17:40;9.80;8.40;6.60
42002;PMS7003;27693;50.506;30.832;2022-08-24T02:18:42;10.30;10.00;8.50
42002;PMS7003;27693;50.506;30.832;2022-08-24T02:19:46;11.90;11.10;8.90
42002;PMS7003;27693;50.506;30.832;2022-08-24T02:20:48;14.20;12.20;9.20
42002;PMS7003;27693;50.506;30.832;2022-08-24T02:21:50;11.20;11.00;9.00
42002;PMS7003;27693;50.506;30.832;2022-08-24T02:22:53;11.30;11.00;8.40
42002;PMS7003;27693;50.506;30.832;2022-08-24T02:23:56;12.40;10.70;8.30
42002;PMS7003;27693;50.506;30.832;2022-08-24T02:24:59;12.00;10.09;7.91
42002;PMS7003;27693;50.506;30.832;2022-08-24T02:26:02;11.90;11.00;9.20
42002;PMS7003;27693;50.506;30.832;2022-08-24T02:27:05;12.00;11.30;9.10
42002;PMS7003;27693;50.506;30.832;2022-08-24T02:28:07;13.10;11.00;8.00
42002;PMS7003;27693;50.506;30.832;2022-08-24T02:29:10;11.30;10.80;9.00
42002;PMS7003;27693;50.506;30.832;2022-08-24T02:30:13;11.80;10.70;8.70
42002;PMS7003;27693;50.506;30.832;2022-08-24T02:31:16;11.60;10.70;8.00
42002;PMS7003;27693;50.506;30.832;2022-08-24T02:32:19;10.50;9.90;7.70
42002;PMS7003;27693;50.506;30.832;2022-08-24T02:33:21;13.40;11.50;8.90
42002;PMS7003;27693;50.506;30.832;2022-08-24T02:34:23;11.80;11.10;8.60
42002;PMS7003;27693;50.506;30.832;2022-08-24T02:35:28;15.40;12.60;10.30
42002;PMS7003;27693;50.506;30.832;2022-08-24T02:36:32;10.00;9.50;7.50
42002;PMS7003;27693;50.506;30.832;2022-08-24T02:37:34;10.20;9.80;7.70
42002;PMS7003;27693;50.506;30.832;2022-08-24T02:38:40;10.60;10.50;8.70
42002;PMS7003;27693;50.506;30.832;2022-08-24T02:39:44;11.20;10.20;8.70
42002;PMS7003;27693;50.506;30.832;2022-08-24T02:40:49;15.70;11.40;8.20
42002;PMS7003;27693;50.506;30.832;2022-08-24T02:41:52;11.40;9.10;8.20
42002;PMS7003;27693;50.506;30.832;2022-08-24T02:42:56;10.70;10.20;8.00
42002;PMS7003;27693;50.506;30.832;2022-08-24T02:43:59;10.27;9.09;7.18
42002;PMS7003;27693;50.506;30.832;2022-08-24T02:45:02;10.82;9.82;8.27
42002;PMS7003;27693;50.506;30.832;2022-08-24T02:46:07;12.80;10.50;8.90
42002;PMS7003;27693;50.506;30.832;2022-08-24T02:47:12;10.60;10.40;8.00
42002;PMS7003;27693;50.506;30.832;2022-08-24T02:48:14;13.20;10.70;8.40
42002;PMS7003;27693;50.506;30.832;2022-08-24T02:49:17;10.60;10.20;8.00
42002;PMS7003;27693;50.506;30.832;2022-08-24T02:50:20;10.30;9.60;7.70
42002;PMS7003;27693;50.506;30.832;2022-08-24T02:51:27;13.27;9.27;7.91
42002;PMS7003;27693;50.506;30.832;2022-08-24T02:52:31;10.90;9.30;7.80
42002;PMS7003;27693;50.506;30.832;2022-08-24T02:53:35;11.50;10.70;7.90
42002;PMS7003;27693;50.506;30.832;2022-08-24T02:54:37;12.00;10.30;8.40
42002;PMS7003;27693;50.506;30.832;2022-08-24T02:55:39;10.80;10.40;8.20
42002;PMS7003;27693;50.506;30.832;2022-08-24T02:56:43;10.00;8.80;6.80
42002;PMS7003;27693;50.506;30.832;2022-08-24T02:57:46;11.70;9.90;8.20
42002;PMS7003;27693;50.506;30.832;2022-08-24T02:58:49;11.18;11.18;8.27
42002;PMS7003;27693;50.506;30.832;2022-08-24T02:59:53;8.70;8.10;6.70
42002;PMS7003;27693;50.506;30.832;2022-08-24T03:00:55;10.30;9.40;7.20
42002;PMS7003;27693;50.506;30.832;2022-08-24T03:01:59;13.20;11.60;8.50
42002;PMS7003;27693;50.506;30.832;2022-08-24T03:03:02;9.50;7.20;5.50
42002;PMS7003;27693;50.506;30.832;2022-08-24T03:04:05;10.80;9.90;8.00
42002;PMS7003;27693;50.506;30.832;2022-08-24T03:05:07;11.00;9.80;8.00
42002;PMS7003;27693;50.506;30.832;2022-08-24T03:06:11;11.80;9.40;7.40
42002;PMS7003;27693;50.506;30.832;2022-08-24T03:07:14;12.20;9.00;7.10
42002;PMS7003;27693;50.506;30.832;2022-08-24T03:08:16;7.80;6.90;6.60
42002;PMS7003;27693;50.506;30.832;2022-08-24T03:09:19;11.00;9.60;7.60
42002;PMS7003;27693;50.506;30.832;2022-08-24T03:10:25;13.60;9.60;8.20
42002;PMS7003;27693;50.506;30.832;2022-08-24T03:11:28;11.70;10.20;7.60
42002;PMS7003;27693;50.506;30.832;2022-08-24T03:12:32;10.30;9.40;6.90
42002;PMS7003;27693;50.506;30.832;2022-08-24T03:13:35;10.80;7.50;5.20
42002;PMS7003;27693;50.506;30.832;2022-08-24T03:14:38;12.40;11.30;9.80
42002;PMS7003;27693;50.506;30.832;2022-08-24T03:15:40;9.20;8.50;6.90
42002;PMS7003;27693;50.506;30.832;2022-08-24T03:16:43;11.10;9.80;8.00
42002;PMS7003;27693;50.506;30.832;2022-08-24T03:17:46;7.90;6.60;5.50
42002;PMS7003;27693;50.506;30.832;2022-08-24T03:18:48;8.70;7.50;6.10
42002;PMS7003;27693;50.506;30.832;2022-08-24T03:19:51;10.10;8.80;7.20
42002;PMS7003;27693;50.506;30.832;2022-08-24T03:20:53;10.30;8.70;7.80
42002;PMS7003;27693;50.506;30.832;2022-08-24T03:21:57;9.70;7.20;6.00
42002;PMS7003;27693;50.506;30.832;2022-08-24T03:23:00;2.00;0.40;0.20
42002;PMS7003;27693;50.506;30.832;2022-08-24T03:24:03;6.70;6.40;4.80
42002;PMS7003;27693;50.506;30.832;2022-08-24T03:25:06;9.60;8.70;6.90
42002;PMS7003;27693;50.506;30.832;2022-08-24T03:26:11;9.90;8.40;6.50
42002;PMS7003;27693;50.506;30.832;2022-08-24T03:27:13;10.50;8.60;7.40
42002;PMS7003;27693;50.506;30.832;2022-08-24T03:28:16;9.60;7.30;6.10
42002;PMS7003;27693;50.506;30.832;2022-08-24T03:29:22;11.40;8.90;7.60
42002;PMS7003;27693;50.506;30.832;2022-08-24T03:30:26;7.30;5.40;5.20
42002;PMS7003;27693;50.506;30.832;2022-08-24T03:31:30;8.60;8.30;6.50
42002;PMS7003;27693;50.506;30.832;2022-08-24T03:32:33;11.10;8.40;7.10
42002;PMS7003;27693;50.506;30.832;2022-08-24T03:33:35;8.30;7.90;6.00
42002;PMS7003;27693;50.506;30.832;2022-08-24T03:34:37;9.70;8.60;7.20
42002;PMS7003;27693;50.506;30.832;2022-08-24T03:35:39;8.60;7.70;6.80
42002;PMS7003;27693;50.506;30.832;2022-08-24T03:36:42;9.60;8.50;6.60
42002;PMS7003;27693;50.506;30.832;2022-08-24T03:37:45;8.55;7.18;6.55
42002;PMS7003;27693;50.506;30.832;2022-08-24T03:38:49;10.80;8.30;6.90
42002;PMS7003;27693;50.506;30.832;2022-08-24T03:39:52;9.50;8.00;7.10
42002;PMS7003;27693;50.506;30.832;2022-08-24T03:40:55;10.27;8.00;6.09
42002;PMS7003;27693;50.506;30.832;2022-08-24T03:41:57;1.50;1.40;0.20
42002;PMS7003;27693;50.506;30.832;2022-08-24T03:43:00;10.82;8.36;7.09
42002;PMS7003;27693;50.506;30.832;2022-08-24T03:44:04;2.40;1.70;1.20
42002;PMS7003;27693;50.506;30.832;2022-08-24T03:45:08;9.00;7.60;6.90
42002;PMS7003;27693;50.506;30.832;2022-08-24T03:46:15;10.60;9.40;7.90
42002;PMS7003;27693;50.506;30.832;2022-08-24T03:47:21;10.10;9.00;7.00
42002;PMS7003;27693;50.506;30.832;2022-08-24T03:48:24;8.70;7.20;6.20
42002;PMS7003;27693;50.506;30.832;2022-08-24T03:49:26;11.60;8.10;6.40
42002;PMS7003;27693;50.506;30.832;2022-08-24T03:50:29;7.70;7.60;6.10
42002;PMS7003;27693;50.506;30.832;2022-08-24T03:51:32;10.20;8.70;7.40
42002;PMS7003;27693;50.506;30.832;2022-08-24T03:52:34;8.60;7.30;5.80
42002;PMS7003;27693;50.506;30.832;2022-08-24T03:53:36;7.70;5.40;4.20
42002;PMS7003;27693;50.506;30.832;2022-08-24T03:54:41;10.30;9.00;7.00
42002;PMS7003;27693;50.506;30.832;2022-08-24T03:55:43;10.10;8.20;6.70
42002;PMS7003;27693;50.506;30.832;2022-08-24T03:56:46;9.00;8.50;6.90
42002;PMS7003;27693;50.506;30.832;2022-08-24T03:57:48;7.40;7.40;6.20
42002;PMS7003;27693;50.506;30.832;2022-08-24T03:58:50;9.20;8.60;7.50
42002;PMS7003;27693;50.506;30.832;2022-08-24T03:59:54;6.70;6.10;5.50
42002;PMS7003;27693;50.506;30.832;2022-08-24T04:00:58;8.90;8.40;7.40
42002;PMS7003;27693;50.506;30.832;2022-08-24T04:02:01;8.70;8.30;6.60
42002;PMS7003;27693;50.506;30.832;2022-08-24T04:03:03;9.20;7.50;6.30
42002;PMS7003;27693;50.506;30.832;2022-08-24T04:04:06;8.60;7.10;5.80
42002;PMS7003;27693;50.506;30.832;2022-08-24T04:05:10;8.90;7.80;6.30
42002;PMS7003;27693;50.506;30.832;2022-08-24T04:06:14;8.00;6.60;6.60
42002;PMS7003;27693;50.506;30.832;2022-08-24T04:07:18;7.60;6.00;5.10
42002;PMS7003;27693;50.506;30.832;2022-08-24T04:08:20;8.70;7.70;6.20
42002;PMS7003;27693;50.506;30.832;2022-08-24T04:09:23;10.10;8.40;6.90
42002;PMS7003;27693;50.506;30.832;2022-08-24T04:10:26;9.70;8.00;6.60
42002;PMS7003;27693;50.506;30.832;2022-08-24T04:11:28;9.00;9.00;7.40
42002;PMS7003;27693;50.506;30.832;2022-08-24T04:12:31;8.90;8.30;6.00
42002;PMS7003;27693;50.506;30.832;2022-08-24T04:13:33;7.70;7.20;5.80
42002;PMS7003;27693;50.506;30.832;2022-08-24T04:14:36;8.50;7.80;6.70
42002;PMS7003;27693;50.506;30.832;2022-08-24T04:15:41;10.40;8.10;6.90
42002;PMS7003;27693;50.506;30.832;2022-08-24T04:16:44;11.10;9.00;7.50
42002;PMS7003;27693;50.506;30.832;2022-08-24T04:17:50;9.70;7.80;6.70
42002;PMS7003;27693;50.506;30.832;2022-08-24T04:18:52;10.50;7.80;6.50
42002;PMS7003;27693;50.506;30.832;2022-08-24T04:19:55;12.70;11.20;8.80
42002;PMS7003;27693;50.506;30.832;2022-08-24T04:20:58;10.40;8.70;6.80
42002;PMS7003;27693;50.506;30.832;2022-08-24T04:22:01;11.50;8.60;7.20
42002;PMS7003;27693;50.506;30.832;2022-08-24T04:23:05;10.00;8.10;6.50
42002;PMS7003;27693;50.506;30.832;2022-08-24T04:24:10;8.90;8.30;6.90
42002;PMS7003;27693;50.506;30.832;2022-08-24T04:25:13;9.30;7.50;6.00
42002;PMS7003;27693;50.506;30.832;2022-08-24T04:26:17;13.40;9.00;7.30
42002;PMS7003;27693;50.506;30.832;2022-08-24T04:27:24;9.90;8.80;6.90
42002;PMS7003;27693;50.506;30.832;2022-08-24T04:28:27;10.64;8.73;6.36
42002;PMS7003;27693;50.506;30.832;2022-08-24T04:29:29;8.36;7.73;6.91
42002;PMS7003;27693;50.506;30.832;2022-08-24T04:30:32;13.60;8.00;6.30
42002;PMS7003;27693;50.506;30.832;2022-08-24T04:31:42;9.80;8.20;6.60
42002;PMS7003;27693;50.506;30.832;2022-08-24T04:32:46;10.10;9.00;7.80
42002;PMS7003;27693;50.506;30.832;2022-08-24T04:33:48;8.60;7.20;5.90
42002;PMS7003;27693;50.506;30.832;2022-08-24T04:34:54;10.50;8.30;6.40
42002;PMS7003;27693;50.506;30.832;2022-08-24T04:35:56;11.40;9.20;7.20
42002;PMS7003;27693;50.506;30.832;2022-08-24T04:37:01;8.40;6.10;5.10
42002;PMS7003;27693;50.506;30.832;2022-08-24T04:38:04;9.80;9.40;8.00
42002;PMS7003;27693;50.506;30.832;2022-08-24T04:39:08;8.40;6.80;5.20
42002;PMS7003;27693;50.506;30.832;2022-08-24T04:40:30;9.30;7.00;6.30
42002;PMS7003;27693;50.506;30.832;2022-08-24T04:41:33;10.60;9.50;7.60
42002;PMS7003;27693;50.506;30.832;2022-08-24T04:42:37;7.80;5.90;3.80
42002;PMS7003;27693;50.506;30.832;2022-08-24T04:43:39;10.80;9.20;7.10
42002;PMS7003;27693;50.506;30.832;2022-08-24T04:44:43;11.60;9.30;7.50
42002;PMS7003;27693;50.506;30.832;2022-08-24T04:45:46;10.50;8.50;7.40
42002;PMS7003;27693;50.506;30.832;2022-08-24T04:46:49;6.90;6.40;4.70
42002;PMS7003;27693;50.506;30.832;2022-08-24T04:47:51;9.60;8.90;6.60
42002;PMS7003;27693;50.506;30.832;2022-08-24T04:48:54;10.90;8.70;7.30
42002;PMS7003;27693;50.506;30.832;2022-08-24T04:49:57;8.90;7.90;6.40
42002;PMS7003;27693;50.506;30.832;2022-08-24T04:51:01;11.18;9.45;8.36
42002;PMS7003;27693;50.506;30.832;2022-08-24T04:52:05;15.80;13.40;9.50
42002;PMS7003;27693;50.506;30.832;2022-08-24T04:53:09;10.09;6.82;5.36
42002;PMS7003;27693;50.506;30.832;2022-08-24T04:54:13;9.40;8.10;6.50
42002;PMS7003;27693;50.506;30.832;2022-08-24T04:55:16;11.55;9.27;7.55
42002;PMS7003;27693;50.506;30.832;2022-08-24T04:56:21;10.40;8.20;6.70
42002;PMS7003;27693;50.506;30.832;2022-08-24T04:57:25;8.00;7.20;5.80
42002;PMS7003;27693;50.506;30.832;2022-08-24T04:58:29;8.00;6.30;5.80
42002;PMS7003;27693;50.506;30.832;2022-08-24T04:59:32;8.10;8.10;6.70
42002;PMS7003;27693;50.506;30.832;2022-08-24T05:00:37;12.40;9.00;8.10
42002;PMS7003;27693;50.506;30.832;2022-08-24T05:01:40;10.00;8.00;6.60
42002;PMS7003;27693;50.506;30.832;2022-08-24T05:02:45;8.30;8.30;6.50
42002;PMS7003;27693;50.506;30.832;2022-08-24T05:03:48;10.10;9.10;7.70
42002;PMS7003;27693;50.506;30.832;2022-08-24T05:04:53;9.50;8.70;7.70
42002;PMS7003;27693;50.506;30.832;2022-08-24T05:05:57;8.60;6.70;5.40
42002;PMS7003;27693;50.506;30.832;2022-08-24T05:07:00;11.00;9.00;7.30
42002;PMS7003;27693;50.506;30.832;2022-08-24T05:08:03;9.18;8.55;7.45
42002;PMS7003;27693;50.506;30.832;2022-08-24T05:09:06;13.80;10.00;8.10
42002;PMS7003;27693;50.506;30.832;2022-08-24T05:10:10;11.10;9.40;8.60
42002;PMS7003;27693;50.506;30.832;2022-08-24T05:11:13;9.40;7.50;6.40
42002;PMS7003;27693;50.506;30.832;2022-08-24T05:12:17;8.80;8.80;6.60
42002;PMS7003;27693;50.506;30.832;2022-08-24T05:13:21;11.60;8.90;7.80
42002;PMS7003;27693;50.506;30.832;2022-08-24T05:14:23;10.50;9.40;7.60
42002;PMS7003;27693;50.506;30.832;2022-08-24T05:15:27;10.60;10.60;7.90
42002;PMS7003;27693;50.506;30.832;2022-08-24T05:16:30;13.40;10.10;8.10
42002;PMS7003;27693;50.506;30.832;2022-08-24T05:17:33;10.40;8.80;7.60
42002;PMS7003;27693;50.506;30.832;2022-08-24T05:18:35;6.40;4.70;4.00
42002;PMS7003;27693;50.506;30.832;2022-08-24T05:19:37;10.10;9.30;7.70
42002;PMS7003;27693;50.506;30.832;2022-08-24T05:20:40;10.20;7.60;6.80
42002;PMS7003;27693;50.506;30.832;2022-08-24T05:21:44;10.80;8.90;7.10
42002;PMS7003;27693;50.506;30.832;2022-08-24T05:22:46;10.30;8.10;7.50
42002;PMS7003;27693;50.506;30.832;2022-08-24T05:23:49;10.20;8.60;6.40
42002;PMS7003;27693;50.506;30.832;2022-08-24T05:24:51;9.27;7.73;6.45
42002;PMS7003;27693;50.506;30.832;2022-08-24T05:26:02;4.00;4.00;4.00
42002;PMS7003;27693;50.506;30.832;2022-08-24T05:27:06;7.80;7.10;6.40
42002;PMS7003;27693;50.506;30.832;2022-08-24T05:28:08;11.90;9.40;7.40
42002;PMS7003;27693;50.506;30.832;2022-08-24T05:29:12;10.90;9.20;8.20
42002;PMS7003;27693;50.506;30.832;2022-08-24T05:30:17;9.90;7.70;6.40
42002;PMS7003;27693;50.506;30.832;2022-08-24T05:31:20;9.30;8.40;7.50
42002;PMS7003;27693;50.506;30.832;2022-08-24T05:32:24;9.80;8.00;6.60
42002;PMS7003;27693;50.506;30.832;2022-08-24T05:33:27;11.30;8.80;6.80
42002;PMS7003;27693;50.506;30.832;2022-08-24T05:34:29;11.40;8.90;7.10
42002;PMS7003;27693;50.506;30.832;2022-08-24T05:35:36;10.80;9.10;7.00
42002;PMS7003;27693;50.506;30.832;2022-08-24T05:36:42;8.60;7.90;6.60
42002;PMS7003;27693;50.506;30.832;2022-08-24T05:37:52;9.80;7.80;7.20
42002;PMS7003;27693;50.506;30.832;2022-08-24T05:38:57;9.60;8.80;7.70
42002;PMS7003;27693;50.506;30.832;2022-08-24T05:40:04;9.90;9.00;7.60
42002;PMS7003;27693;50.506;30.832;2022-08-24T05:41:10;9.50;8.00;6.20
42002;PMS7003;27693;50.506;30.832;2022-08-24T05:42:13;9.20;7.00;5.70
42002;PMS7003;27693;50.506;30.832;2022-08-24T05:43:17;10.40;8.60;7.30
42002;PMS7003;27693;50.506;30.832;2022-08-24T05:44:20;11.82;8.36;7.00
42002;PMS7003;27693;50.506;30.832;2022-08-24T05:45:22;9.70;7.40;6.20
42002;PMS7003;27693;50.506;30.832;2022-08-24T05:46:25;9.80;8.90;7.00
42002;PMS7003;27693;50.506;30.832;2022-08-24T05:47:28;11.40;8.40;7.20
42002;PMS7003;27693;50.506;30.832;2022-08-24T05:48:33;8.20;7.20;5.90
42002;PMS7003;27693;50.506;30.832;2022-08-24T05:49:40;8.20;7.80;6.00
42002;PMS7003;27693;50.506;30.832;2022-08-24T05:50:50;7.50;6.90;5.90
42002;PMS7003;27693;50.506;30.832;2022-08-24T05:51:53;9.40;8.50;7.00
42002;PMS7003;27693;50.506;30.832;2022-08-24T05:52:56;9.50;8.20;6.40
42002;PMS7003;27693;50.506;30.832;2022-08-24T05:53:58;8.20;7.30;6.90
42002;PMS7003;27693;50.506;30.832;2022-08-24T05:55:03;10.10;8.10;6.30
42002;PMS7003;27693;50.506;30.832;2022-08-24T05:56:08;10.60;9.00;7.40
42002;PMS7003;27693;50.506;30.832;2022-08-24T05:57:12;10.00;8.00;7.00
42002;PMS7003;27693;50.506;30.832;2022-08-24T05:58:16;11.00;8.90;7.30
42002;PMS7003;27693;50.506;30.832;2022-08-24T05:59:22;10.20;8.30;6.70
42002;PMS7003;27693;50.506;30.832;2022-08-24T06:00:26;7.30;7.30;5.90
42002;PMS7003;27693;50.506;30.832;2022-08-24T06:01:29;7.00;7.00;5.80
42002;PMS7003;27693;50.506;30.832;2022-08-24T06:02:32;9.00;8.55;7.18
42002;PMS7003;27693;50.506;30.832;2022-08-24T06:03:35;7.90;7.80;5.80
42002;PMS7003;27693;50.506;30.832;2022-08-24T06:04:38;8.80;8.10;6.50
42002;PMS7003;27693;50.506;30.832;2022-08-24T06:05:41;11.18;7.36;6.27
42002;PMS7003;27693;50.506;30.832;2022-08-24T06:06:46;15.30;10.70;8.30